Terminal Aerodrome Forecast
Issued by NWS Paducah, KY

Home | Current Version | Previous Version | Text Only | Print | Product List | Glossary On
Versions: 1 2 3 4 5 6 7 8 9 10 11 12 13 14 15 16 17 18
000
FTUS43 KPAH 210136 AAB
TAFEVV
TAF AMD
KEVV 210136Z 2102/2124 36008KT 3SM BR BKN008
      TEMPO 2102/2103 1 1/2SM -RA BR
     FM211500 34010KT P6SM BKN015
     FM211800 32010KT P6SM BKN020=

USA.gov is the U.S. government's official web portal to all federal, state and local government web resources and services.